sensor_id;sensor_type;location;lat;lon;timestamp;pressure;altitude;pressure_sealevel;temperature;humidity
7660;BME280;3872;47.902;8.162;2023-01-10T00:00:40;91535.44;;;1.76;100.00
7660;BME280;3872;47.902;8.162;2023-01-10T00:03:07;91534.56;;;1.66;100.00
7660;BME280;3872;47.902;8.162;2023-01-10T00:05:35;91543.56;;;1.26;100.00
7660;BME280;3872;47.902;8.162;2023-01-10T00:08:03;91551.94;;;1.33;100.00
7660;BME280;3872;47.902;8.162;2023-01-10T00:10:30;91553.81;;;1.43;100.00
7660;BME280;3872;47.902;8.162;2023-01-10T00:12:58;91557.00;;;1.50;100.00
7660;BME280;3872;47.902;8.162;2023-01-10T00:15:42;91571.91;;;1.65;100.00
7660;BME280;3872;47.902;8.162;2023-01-10T00:18:09;91571.63;;;1.61;100.00
7660;BME280;3872;47.902;8.162;2023-01-10T00:20:36;91580.31;;;1.50;100.00
7660;BME280;3872;47.902;8.162;2023-01-10T00:23:02;91590.63;;;1.40;100.00
7660;BME280;3872;47.902;8.162;2023-01-10T00:25:31;91579.84;;;1.53;100.00
7660;BME280;3872;47.902;8.162;2023-01-10T00:27:59;91595.75;;;1.62;100.00
7660;BME280;3872;47.902;8.162;2023-01-10T00:30:31;91590.00;;;1.60;100.00
7660;BME280;3872;47.902;8.162;2023-01-10T00:32:59;91596.97;;;1.54;100.00
7660;BME280;3872;47.902;8.162;2023-01-10T00:35:30;91609.28;;;1.69;100.00
7660;BME280;3872;47.902;8.162;2023-01-10T00:37:56;91607.69;;;1.63;100.00
7660;BME280;3872;47.902;8.162;2023-01-10T00:40:30;91612.22;;;1.50;100.00
7660;BME280;3872;47.902;8.162;2023-01-10T00:42:57;91604.38;;;1.72;100.00
7660;BME280;3872;47.902;8.162;2023-01-10T00:45:43;91612.41;;;1.44;100.00
7660;BME280;3872;47.902;8.162;2023-01-10T00:48:09;91624.00;;;1.36;100.00
7660;BME280;3872;47.902;8.162;2023-01-10T00:50:36;91633.50;;;1.26;100.00
7660;BME280;3872;47.902;8.162;2023-01-10T00:53:03;91648.41;;;1.62;100.00
7660;BME280;3872;47.902;8.162;2023-01-10T00:55:29;91659.28;;;1.37;100.00
7660;BME280;3872;47.902;8.162;2023-01-10T00:57:56;91650.22;;;1.13;100.00
7660;BME280;3872;47.902;8.162;2023-01-10T01:00:23;91659.84;;;1.17;100.00
7660;BME280;3872;47.902;8.162;2023-01-10T01:02:51;91668.16;;;1.41;100.00
7660;BME280;3872;47.902;8.162;2023-01-10T01:05:18;91680.66;;;1.49;100.00
7660;BME280;3872;47.902;8.162;2023-01-10T01:07:46;91688.19;;;1.24;100.00
7660;BME280;3872;47.902;8.162;2023-01-10T01:10:13;91685.53;;;1.41;100.00
7660;BME280;3872;47.902;8.162;2023-01-10T01:12:52;91683.03;;;1.51;100.00
7660;BME280;3872;47.902;8.162;2023-01-10T01:15:19;91687.50;;;1.55;100.00
7660;BME280;3872;47.902;8.162;2023-01-10T01:17:45;91704.75;;;1.72;100.00
7660;BME280;3872;47.902;8.162;2023-01-10T01:20:14;91721.13;;;1.29;100.00
7660;BME280;3872;47.902;8.162;2023-01-10T01:22:41;91731.59;;;1.34;100.00
7660;BME280;3872;47.902;8.162;2023-01-10T01:25:08;91727.19;;;1.56;100.00
7660;BME280;3872;47.902;8.162;2023-01-10T01:27:34;91735.50;;;1.36;100.00
7660;BME280;3872;47.902;8.162;2023-01-10T01:30:02;91744.81;;;1.15;100.00
7660;BME280;3872;47.902;8.162;2023-01-10T01:32:29;91751.66;;;1.43;100.00
7660;BME280;3872;47.902;8.162;2023-01-10T01:34:56;91762.16;;;1.32;100.00
7660;BME280;3872;47.902;8.162;2023-01-10T01:37:23;91768.97;;;1.38;100.00
7660;BME280;3872;47.902;8.162;2023-01-10T01:39:50;91779.69;;;1.25;100.00
7660;BME280;3872;47.902;8.162;2023-01-10T01:42:23;91773.16;;;1.22;100.00
7660;BME280;3872;47.902;8.162;2023-01-10T01:47:58;91805.38;;;1.09;100.00
7660;BME280;3872;47.902;8.162;2023-01-10T01:50:31;91808.94;;;1.03;100.00
7660;BME280;3872;47.902;8.162;2023-01-10T01:53:02;91813.16;;;1.09;100.00
7660;BME280;3872;47.902;8.162;2023-01-10T01:55:32;91829.66;;;1.20;100.00
7660;BME280;3872;47.902;8.162;2023-01-10T01:58:03;91824.38;;;1.53;100.00
7660;BME280;3872;47.902;8.162;2023-01-10T02:00:32;91820.75;;;1.16;100.00
7660;BME280;3872;47.902;8.162;2023-01-10T02:03:01;91818.72;;;1.18;100.00
7660;BME280;3872;47.902;8.162;2023-01-10T02:05:30;91821.81;;;0.98;100.00
7660;BME280;3872;47.902;8.162;2023-01-10T02:07:58;91829.19;;;1.06;100.00
7660;BME280;3872;47.902;8.162;2023-01-10T02:10:31;91825.31;;;1.26;100.00
7660;BME280;3872;47.902;8.162;2023-01-10T02:13:03;91826.28;;;1.20;100.00
7660;BME280;3872;47.902;8.162;2023-01-10T02:15:30;91839.06;;;1.09;100.00
7660;BME280;3872;47.902;8.162;2023-01-10T02:17:57;91825.38;;;1.31;100.00
7660;BME280;3872;47.902;8.162;2023-01-10T02:20:24;91827.75;;;1.15;100.00
7660;BME280;3872;47.902;8.162;2023-01-10T02:23:10;91838.97;;;1.21;100.00
7660;BME280;3872;47.902;8.162;2023-01-10T02:29:13;91824.34;;;1.32;100.00
7660;BME280;3872;47.902;8.162;2023-01-10T02:32:04;91848.50;;;1.15;100.00
7660;BME280;3872;47.902;8.162;2023-01-10T02:34:39;91847.78;;;1.20;100.00
7660;BME280;3872;47.902;8.162;2023-01-10T02:37:13;91841.72;;;1.14;100.00
7660;BME280;3872;47.902;8.162;2023-01-10T02:39:48;91845.78;;;1.44;100.00
7660;BME280;3872;47.902;8.162;2023-01-10T02:42:21;91841.44;;;1.49;100.00
7660;BME280;3872;47.902;8.162;2023-01-10T02:44:51;91854.41;;;1.49;100.00
7660;BME280;3872;47.902;8.162;2023-01-10T02:47:21;91859.81;;;1.26;100.00
7660;BME280;3872;47.902;8.162;2023-01-10T02:49:49;91866.56;;;1.27;100.00
7660;BME280;3872;47.902;8.162;2023-01-10T02:52:18;91861.53;;;1.04;100.00
7660;BME280;3872;47.902;8.162;2023-01-10T02:54:47;91874.91;;;1.12;100.00
7660;BME280;3872;47.902;8.162;2023-01-10T02:57:34;91880.09;;;1.51;100.00
7660;BME280;3872;47.902;8.162;2023-01-10T03:00:29;91902.28;;;1.08;100.00
7660;BME280;3872;47.902;8.162;2023-01-10T03:03:11;91902.47;;;1.74;100.00
7660;BME280;3872;47.902;8.162;2023-01-10T03:05:54;91900.41;;;1.21;100.00
7660;BME280;3872;47.902;8.162;2023-01-10T03:08:35;91919.81;;;1.35;100.00
7660;BME280;3872;47.902;8.162;2023-01-10T03:11:05;91938.19;;;1.16;100.00
7660;BME280;3872;47.902;8.162;2023-01-10T03:13:36;91945.94;;;0.83;100.00
7660;BME280;3872;47.902;8.162;2023-01-10T03:16:08;91937.94;;;1.01;100.00
7660;BME280;3872;47.902;8.162;2023-01-10T03:18:40;91938.25;;;1.05;100.00
7660;BME280;3872;47.902;8.162;2023-01-10T03:21:09;91946.28;;;1.37;100.00
7660;BME280;3872;47.902;8.162;2023-01-10T03:23:36;91951.81;;;0.95;100.00
7660;BME280;3872;47.902;8.162;2023-01-10T03:26:04;91950.44;;;1.04;100.00
7660;BME280;3872;47.902;8.162;2023-01-10T03:28:36;91961.06;;;1.20;100.00
7660;BME280;3872;47.902;8.162;2023-01-10T03:31:06;91959.34;;;1.42;100.00
7660;BME280;3872;47.902;8.162;2023-01-10T03:33:34;91955.56;;;1.33;100.00
7660;BME280;3872;47.902;8.162;2023-01-10T03:36:10;91959.69;;;1.50;100.00
7660;BME280;3872;47.902;8.162;2023-01-10T03:38:45;91968.66;;;1.43;100.00
7660;BME280;3872;47.902;8.162;2023-01-10T03:41:16;91967.16;;;1.30;100.00
7660;BME280;3872;47.902;8.162;2023-01-10T03:43:52;91965.69;;;1.17;100.00
7660;BME280;3872;47.902;8.162;2023-01-10T03:46:42;91974.66;;;1.27;100.00
7660;BME280;3872;47.902;8.162;2023-01-10T03:49:09;91981.31;;;1.39;100.00
7660;BME280;3872;47.902;8.162;2023-01-10T03:51:40;91983.81;;;1.51;100.00
7660;BME280;3872;47.902;8.162;2023-01-10T03:54:07;91994.19;;;1.51;100.00
7660;BME280;3872;47.902;8.162;2023-01-10T03:56:43;92003.09;;;1.55;100.00
7660;BME280;3872;47.902;8.162;2023-01-10T03:59:10;92007.00;;;1.24;100.00
7660;BME280;3872;47.902;8.162;2023-01-10T04:01:37;91995.28;;;1.22;100.00
7660;BME280;3872;47.902;8.162;2023-01-10T04:04:03;91992.97;;;1.08;100.00
7660;BME280;3872;47.902;8.162;2023-01-10T04:06:30;92003.31;;;1.37;100.00
7660;BME280;3872;47.902;8.162;2023-01-10T04:08:58;92012.28;;;1.01;100.00
7660;BME280;3872;47.902;8.162;2023-01-10T04:11:24;92016.41;;;1.13;100.00
7660;BME280;3872;47.902;8.162;2023-01-10T04:13:51;92030.88;;;1.43;100.00
7660;BME280;3872;47.902;8.162;2023-01-10T04:16:17;92035.75;;;0.94;100.00
7660;BME280;3872;47.902;8.162;2023-01-10T04:18:44;92033.06;;;0.89;100.00
7660;BME280;3872;47.902;8.162;2023-01-10T04:21:11;92042.59;;;1.00;100.00
7660;BME280;3872;47.902;8.162;2023-01-10T04:23:37;92045.16;;;0.84;100.00
7660;BME280;3872;47.902;8.162;2023-01-10T04:26:05;92046.94;;;0.83;100.00
7660;BME280;3872;47.902;8.162;2023-01-10T04:28:32;92050.75;;;1.21;100.00
7660;BME280;3872;47.902;8.162;2023-01-10T04:30:59;92049.69;;;1.50;100.00
7660;BME280;3872;47.902;8.162;2023-01-10T04:33:25;92063.06;;;1.13;100.00
7660;BME280;3872;47.902;8.162;2023-01-10T04:35:53;92062.56;;;1.45;100.00
7660;BME280;3872;47.902;8.162;2023-01-10T04:38:20;92066.19;;;1.15;100.00
7660;BME280;3872;47.902;8.162;2023-01-10T04:40:51;92064.25;;;1.68;100.00
7660;BME280;3872;47.902;8.162;2023-01-10T04:43:19;92074.06;;;1.49;100.00
7660;BME280;3872;47.902;8.162;2023-01-10T04:45:46;92077.59;;;1.60;100.00
7660;BME280;3872;47.902;8.162;2023-01-10T04:48:13;92082.28;;;1.91;100.00
7660;BME280;3872;47.902;8.162;2023-01-10T04:50:39;92085.78;;;2.02;100.00
7660;BME280;3872;47.902;8.162;2023-01-10T04:53:06;92091.84;;;1.90;100.00
7660;BME280;3872;47.902;8.162;2023-01-10T04:55:32;92097.81;;;1.74;100.00
7660;BME280;3872;47.902;8.162;2023-01-10T04:58:00;92104.09;;;1.78;100.00
7660;BME280;3872;47.902;8.162;2023-01-10T05:00:28;92102.72;;;2.04;100.00
7660;BME280;3872;47.902;8.162;2023-01-10T05:02:55;92099.31;;;1.87;100.00
7660;BME280;3872;47.902;8.162;2023-01-10T05:05:22;92107.22;;;1.64;100.00
7660;BME280;3872;47.902;8.162;2023-01-10T05:07:49;92112.31;;;1.58;100.00
7660;BME280;3872;47.902;8.162;2023-01-10T05:10:16;92107.75;;;2.11;100.00
7660;BME280;3872;47.902;8.162;2023-01-10T05:12:42;92109.75;;;1.92;100.00
7660;BME280;3872;47.902;8.162;2023-01-10T05:15:09;92106.41;;;2.08;100.00
7660;BME280;3872;47.902;8.162;2023-01-10T05:17:38;92114.97;;;2.25;100.00
7660;BME280;3872;47.902;8.162;2023-01-10T05:20:05;92124.56;;;2.25;100.00
7660;BME280;3872;47.902;8.162;2023-01-10T05:22:32;92116.38;;;2.16;100.00
7660;BME280;3872;47.902;8.162;2023-01-10T05:24:58;92125.22;;;1.99;100.00
7660;BME280;3872;47.902;8.162;2023-01-10T05:27:25;92122.22;;;1.90;100.00
7660;BME280;3872;47.902;8.162;2023-01-10T05:29:51;92118.19;;;1.99;100.00
7660;BME280;3872;47.902;8.162;2023-01-10T05:32:18;92123.16;;;2.17;100.00
7660;BME280;3872;47.902;8.162;2023-01-10T05:34:46;92116.09;;;2.13;100.00
7660;BME280;3872;47.902;8.162;2023-01-10T05:37:12;92119.53;;;2.02;100.00
7660;BME280;3872;47.902;8.162;2023-01-10T05:39:39;92123.53;;;1.92;100.00
7660;BME280;3872;47.902;8.162;2023-01-10T05:42:07;92122.75;;;1.92;100.00
7660;BME280;3872;47.902;8.162;2023-01-10T05:44:33;92132.44;;;2.13;100.00
7660;BME280;3872;47.902;8.162;2023-01-10T05:47:00;92139.66;;;1.49;100.00
7660;BME280;3872;47.902;8.162;2023-01-10T05:49:26;92133.66;;;1.32;100.00
7660;BME280;3872;47.902;8.162;2023-01-10T05:51:54;92129.44;;;1.88;100.00
7660;BME280;3872;47.902;8.162;2023-01-10T05:54:21;92136.06;;;1.95;100.00
7660;BME280;3872;47.902;8.162;2023-01-10T05:56:47;92140.75;;;1.82;100.00
7660;BME280;3872;47.902;8.162;2023-01-10T05:59:14;92146.25;;;1.40;100.00
7660;BME280;3872;47.902;8.162;2023-01-10T06:01:40;92150.59;;;1.51;100.00
7660;BME280;3872;47.902;8.162;2023-01-10T06:04:07;92144.19;;;1.42;100.00
7660;BME280;3872;47.902;8.162;2023-01-10T06:06:33;92146.28;;;1.29;100.00
7660;BME280;3872;47.902;8.162;2023-01-10T06:09:01;92157.94;;;1.71;100.00
7660;BME280;3872;47.902;8.162;2023-01-10T06:11:28;92162.22;;;1.21;100.00
7660;BME280;3872;47.902;8.162;2023-01-10T06:13:55;92163.81;;;1.10;100.00
7660;BME280;3872;47.902;8.162;2023-01-10T06:16:21;92163.47;;;1.75;100.00
7660;BME280;3872;47.902;8.162;2023-01-10T06:18:48;92170.66;;;1.28;100.00
7660;BME280;3872;47.902;8.162;2023-01-10T06:21:14;92166.34;;;1.33;100.00
7660;BME280;3872;47.902;8.162;2023-01-10T06:23:41;92182.31;;;0.90;100.00
7660;BME280;3872;47.902;8.162;2023-01-10T06:26:09;92185.28;;;1.34;100.00
7660;BME280;3872;47.902;8.162;2023-01-10T06:28:36;92192.59;;;1.65;100.00
7660;BME280;3872;47.902;8.162;2023-01-10T06:31:05;92188.38;;;1.47;100.00
7660;BME280;3872;47.902;8.162;2023-01-10T06:33:32;92197.91;;;1.58;100.00
7660;BME280;3872;47.902;8.162;2023-01-10T06:35:58;92201.75;;;1.28;100.00
7660;BME280;3872;47.902;8.162;2023-01-10T06:38:25;92199.44;;;1.71;100.00
7660;BME280;3872;47.902;8.162;2023-01-10T06:40:51;92199.44;;;2.00;100.00
7660;BME280;3872;47.902;8.162;2023-01-10T06:43:19;92208.94;;;1.94;100.00
7660;BME280;3872;47.902;8.162;2023-01-10T06:45:46;92221.91;;;1.77;100.00
7660;BME280;3872;47.902;8.162;2023-01-10T06:48:12;92231.78;;;1.52;100.00
7660;BME280;3872;47.902;8.162;2023-01-10T06:50:39;92243.16;;;1.51;100.00
7660;BME280;3872;47.902;8.162;2023-01-10T06:53:06;92238.75;;;1.63;100.00
7660;BME280;3872;47.902;8.162;2023-01-10T06:55:32;92228.53;;;1.73;100.00
7660;BME280;3872;47.902;8.162;2023-01-10T06:58:00;92227.16;;;1.42;100.00
7660;BME280;3872;47.902;8.162;2023-01-10T07:00:29;92237.66;;;1.47;100.00
7660;BME280;3872;47.902;8.162;2023-01-10T07:02:59;92247.34;;;1.52;100.00
7660;BME280;3872;47.902;8.162;2023-01-10T07:05:27;92252.38;;;1.58;100.00
7660;BME280;3872;47.902;8.162;2023-01-10T07:07:54;92266.09;;;1.82;100.00
7660;BME280;3872;47.902;8.162;2023-01-10T07:10:22;92270.16;;;1.78;100.00
7660;BME280;3872;47.902;8.162;2023-01-10T07:12:48;92284.25;;;1.71;100.00
7660;BME280;3872;47.902;8.162;2023-01-10T07:15:15;92279.84;;;1.83;100.00
7660;BME280;3872;47.902;8.162;2023-01-10T07:17:43;92275.78;;;1.47;100.00
7660;BME280;3872;47.902;8.162;2023-01-10T07:20:10;92285.19;;;1.65;100.00
7660;BME280;3872;47.902;8.162;2023-01-10T07:22:37;92293.13;;;1.46;100.00
7660;BME280;3872;47.902;8.162;2023-01-10T07:25:04;92288.44;;;1.72;100.00
7660;BME280;3872;47.902;8.162;2023-01-10T07:27:31;92281.25;;;1.62;100.00
7660;BME280;3872;47.902;8.162;2023-01-10T07:29:57;92280.22;;;1.75;100.00
7660;BME280;3872;47.902;8.162;2023-01-10T07:32:24;92290.59;;;1.75;100.00
7660;BME280;3872;47.902;8.162;2023-01-10T07:34:52;92290.84;;;1.62;100.00
7660;BME280;3872;47.902;8.162;2023-01-10T07:37:19;92293.41;;;1.73;100.00
7660;BME280;3872;47.902;8.162;2023-01-10T07:39:45;92300.75;;;1.76;100.00
7660;BME280;3872;47.902;8.162;2023-01-10T07:42:13;92311.28;;;1.46;100.00
7660;BME280;3872;47.902;8.162;2023-01-10T07:44:39;92318.50;;;1.56;100.00
7660;BME280;3872;47.902;8.162;2023-01-10T07:47:06;92298.38;;;1.75;100.00
7660;BME280;3872;47.902;8.162;2023-01-10T07:49:32;92309.38;;;1.42;100.00
7660;BME280;3872;47.902;8.162;2023-01-10T07:52:00;92304.63;;;1.62;100.00
7660;BME280;3872;47.902;8.162;2023-01-10T07:54:27;92324.56;;;1.50;100.00
7660;BME280;3872;47.902;8.162;2023-01-10T07:56:53;92326.63;;;1.48;100.00
7660;BME280;3872;47.902;8.162;2023-01-10T07:59:20;92339.03;;;1.34;100.00
7660;BME280;3872;47.902;8.162;2023-01-10T08:01:46;92349.84;;;1.08;100.00
7660;BME280;3872;47.902;8.162;2023-01-10T08:04:13;92357.75;;;1.13;100.00
7660;BME280;3872;47.902;8.162;2023-01-10T08:06:39;92350.38;;;1.68;100.00
7660;BME280;3872;47.902;8.162;2023-01-10T08:09:07;92364.00;;;1.87;100.00
7660;BME280;3872;47.902;8.162;2023-01-10T08:11:33;92363.56;;;1.90;100.00
7660;BME280;3872;47.902;8.162;2023-01-10T08:14:00;92351.19;;;2.09;100.00
7660;BME280;3872;47.902;8.162;2023-01-10T08:16:26;92350.22;;;1.98;100.00
7660;BME280;3872;47.902;8.162;2023-01-10T08:18:53;92357.09;;;1.92;100.00
7660;BME280;3872;47.902;8.162;2023-01-10T08:21:19;92356.53;;;2.30;100.00
7660;BME280;3872;47.902;8.162;2023-01-10T08:23:46;92362.16;;;2.39;100.00
7660;BME280;3872;47.902;8.162;2023-01-10T08:26:14;92356.88;;;2.62;100.00
7660;BME280;3872;47.902;8.162;2023-01-10T08:28:40;92360.28;;;2.51;100.00
7660;BME280;3872;47.902;8.162;2023-01-10T08:31:08;92346.78;;;2.66;100.00
7660;BME280;3872;47.902;8.162;2023-01-10T08:33:38;92347.13;;;2.41;100.00
7660;BME280;3872;47.902;8.162;2023-01-10T08:36:05;92349.84;;;2.34;100.00
7660;BME280;3872;47.902;8.162;2023-01-10T08:38:31;92348.53;;;2.32;100.00
7660;BME280;3872;47.902;8.162;2023-01-10T08:40:58;92350.00;;;1.88;100.00
7660;BME280;3872;47.902;8.162;2023-01-10T08:43:26;92349.53;;;2.03;100.00
7660;BME280;3872;47.902;8.162;2023-01-10T08:45:52;92367.94;;;1.89;100.00
7660;BME280;3872;47.902;8.162;2023-01-10T08:48:19;92365.41;;;2.06;100.00
7660;BME280;3872;47.902;8.162;2023-01-10T08:50:45;92365.13;;;1.91;100.00
7660;BME280;3872;47.902;8.162;2023-01-10T08:53:12;92369.78;;;1.77;100.00
7660;BME280;3872;47.902;8.162;2023-01-10T08:55:38;92374.25;;;1.93;100.00
7660;BME280;3872;47.902;8.162;2023-01-10T08:58:05;92375.72;;;1.89;100.00
7660;BME280;3872;47.902;8.162;2023-01-10T09:00:33;92389.84;;;1.82;100.00
7660;BME280;3872;47.902;8.162;2023-01-10T09:02:59;92391.53;;;1.88;100.00
7660;BME280;3872;47.902;8.162;2023-01-10T09:05:26;92398.31;;;1.89;100.00
7660;BME280;3872;47.902;8.162;2023-01-10T09:07:54;92401.34;;;1.98;100.00
7660;BME280;3872;47.902;8.162;2023-01-10T09:10:23;92401.53;;;2.48;100.00
7660;BME280;3872;47.902;8.162;2023-01-10T09:12:49;92403.13;;;2.94;100.00
7660;BME280;3872;47.902;8.162;2023-01-10T09:15:25;92396.69;;;3.30;100.00
7660;BME280;3872;47.902;8.162;2023-01-10T09:17:54;92414.13;;;2.67;100.00
7660;BME280;3872;47.902;8.162;2023-01-10T09:20:22;92419.59;;;2.83;100.00
7660;BME280;3872;47.902;8.162;2023-01-10T09:22:50;92429.41;;;2.81;100.00
7660;BME280;3872;47.902;8.162;2023-01-10T09:25:17;92427.03;;;2.51;100.00
7660;BME280;3872;47.902;8.162;2023-01-10T09:27:43;92434.88;;;2.39;100.00
7660;BME280;3872;47.902;8.162;2023-01-10T09:30:10;92432.44;;;2.21;100.00
7660;BME280;3872;47.902;8.162;2023-01-10T09:32:37;92427.31;;;2.38;100.00
7660;BME280;3872;47.902;8.162;2023-01-10T09:35:06;92435.06;;;2.49;100.00
7660;BME280;3872;47.902;8.162;2023-01-10T09:37:33;92436.88;;;1.97;100.00
7660;BME280;3872;47.902;8.162;2023-01-10T09:39:59;92447.72;;;1.82;100.00
7660;BME280;3872;47.902;8.162;2023-01-10T09:42:37;92446.03;;;1.88;100.00
7660;BME280;3872;47.902;8.162;2023-01-10T09:45:14;92451.47;;;1.63;100.00
7660;BME280;3872;47.902;8.162;2023-01-10T09:47:48;92455.25;;;2.07;100.00
7660;BME280;3872;47.902;8.162;2023-01-10T09:50:26;92442.44;;;1.77;100.00
7660;BME280;3872;47.902;8.162;2023-01-10T09:53:00;92452.91;;;2.06;100.00
7660;BME280;3872;47.902;8.162;2023-01-10T09:55:30;92458.59;;;2.31;100.00
7660;BME280;3872;47.902;8.162;2023-01-10T09:57:59;92450.66;;;2.49;100.00
7660;BME280;3872;47.902;8.162;2023-01-10T10:00:35;92456.72;;;2.15;100.00
7660;BME280;3872;47.902;8.162;2023-01-10T10:03:04;92454.59;;;2.00;100.00
7660;BME280;3872;47.902;8.162;2023-01-10T10:05:39;92450.03;;;2.30;100.00
7660;BME280;3872;47.902;8.162;2023-01-10T10:08:13;92439.91;;;2.86;100.00
7660;BME280;3872;47.902;8.162;2023-01-10T10:10:50;92436.63;;;2.10;100.00
7660;BME280;3872;47.902;8.162;2023-01-10T10:13:28;92436.00;;;1.91;100.00
7660;BME280;3872;47.902;8.162;2023-01-10T10:16:07;92436.50;;;2.57;100.00
7660;BME280;3872;47.902;8.162;2023-01-10T10:18:44;92443.81;;;2.31;100.00
7660;BME280;3872;47.902;8.162;2023-01-10T10:21:18;92440.41;;;2.71;100.00
7660;BME280;3872;47.902;8.162;2023-01-10T10:24:01;92445.44;;;2.89;100.00
7660;BME280;3872;47.902;8.162;2023-01-10T10:26:32;92440.13;;;3.63;100.00
7660;BME280;3872;47.902;8.162;2023-01-10T10:29:20;92452.88;;;2.69;100.00
7660;BME280;3872;47.902;8.162;2023-01-10T10:32:03;92452.88;;;3.14;100.00
7660;BME280;3872;47.902;8.162;2023-01-10T10:34:34;92454.97;;;2.72;100.00
7660;BME280;3872;47.902;8.162;2023-01-10T10:37:10;92454.59;;;3.53;100.00
7660;BME280;3872;47.902;8.162;2023-01-10T10:39:44;92459.00;;;2.91;100.00
7660;BME280;3872;47.902;8.162;2023-01-10T10:42:15;92449.88;;;3.05;100.00
7660;BME280;3872;47.902;8.162;2023-01-10T10:44:46;92458.44;;;3.06;100.00
7660;BME280;3872;47.902;8.162;2023-01-10T10:47:17;92461.13;;;2.66;100.00
7660;BME280;3872;47.902;8.162;2023-01-10T10:49:49;92457.34;;;3.47;100.00
7660;BME280;3872;47.902;8.162;2023-01-10T10:52:22;92460.00;;;3.52;100.00
7660;BME280;3872;47.902;8.162;2023-01-10T10:54:50;92458.44;;;2.89;100.00
7660;BME280;3872;47.902;8.162;2023-01-10T10:57:20;92453.38;;;3.28;100.00
7660;BME280;3872;47.902;8.162;2023-01-10T10:59:49;92458.75;;;2.93;100.00
7660;BME280;3872;47.902;8.162;2023-01-10T11:02:22;92456.84;;;3.17;100.00
7660;BME280;3872;47.902;8.162;2023-01-10T11:04:51;92458.22;;;3.07;100.00
7660;BME280;3872;47.902;8.162;2023-01-10T11:07:19;92455.53;;;3.47;100.00
7660;BME280;3872;47.902;8.162;2023-01-10T11:09:48;92450.06;;;2.87;100.00
7660;BME280;3872;47.902;8.162;2023-01-10T11:12:18;92460.78;;;2.62;100.00
7660;BME280;3872;47.902;8.162;2023-01-10T11:14:48;92454.78;;;3.19;100.00
7660;BME280;3872;47.902;8.162;2023-01-10T11:17:22;92466.66;;;3.14;100.00
7660;BME280;3872;47.902;8.162;2023-01-10T11:19:57;92456.63;;;3.51;100.00
7660;BME280;3872;47.902;8.162;2023-01-10T11:22:28;92461.53;;;3.03;100.00
7660;BME280;3872;47.902;8.162;2023-01-10T11:24:57;92453.78;;;3.20;100.00
7660;BME280;3872;47.902;8.162;2023-01-10T11:27:26;92459.16;;;3.46;100.00
7660;BME280;3872;47.902;8.162;2023-01-10T11:29:56;92453.78;;;3.36;100.00
7660;BME280;3872;47.902;8.162;2023-01-10T11:32:29;92459.13;;;2.45;100.00
7660;BME280;3872;47.902;8.162;2023-01-10T11:34:58;92452.03;;;2.80;100.00
7660;BME280;3872;47.902;8.162;2023-01-10T11:37:29;92440.75;;;2.74;100.00
7660;BME280;3872;47.902;8.162;2023-01-10T11:40:16;92432.31;;;2.56;100.00
7660;BME280;3872;47.902;8.162;2023-01-10T11:42:44;92438.66;;;2.88;100.00
7660;BME280;3872;47.902;8.162;2023-01-10T11:45:21;92434.63;;;3.26;100.00
7660;BME280;3872;47.902;8.162;2023-01-10T11:47:51;92443.81;;;3.17;100.00
7660;BME280;3872;47.902;8.162;2023-01-10T11:50:21;92445.09;;;2.57;100.00
7660;BME280;3872;47.902;8.162;2023-01-10T11:52:50;92442.03;;;2.60;100.00
7660;BME280;3872;47.902;8.162;2023-01-10T11:55:18;92437.94;;;3.38;100.00
7660;BME280;3872;47.902;8.162;2023-01-10T11:57:54;92437.03;;;3.15;100.00
7660;BME280;3872;47.902;8.162;2023-01-10T12:00:30;92438.66;;;3.67;100.00
7660;BME280;3872;47.902;8.162;2023-01-10T12:02:57;92424.88;;;4.26;100.00
7660;BME280;3872;47.902;8.162;2023-01-10T12:05:23;92425.91;;;3.87;100.00
7660;BME280;3872;47.902;8.162;2023-01-10T12:07:56;92418.28;;;4.19;100.00
7660;BME280;3872;47.902;8.162;2023-01-10T12:10:24;92408.28;;;3.55;100.00
7660;BME280;3872;47.902;8.162;2023-01-10T12:12:52;92397.75;;;4.44;100.00
7660;BME280;3872;47.902;8.162;2023-01-10T12:15:24;92418.84;;;3.15;100.00
7660;BME280;3872;47.902;8.162;2023-01-10T12:17:52;92414.44;;;3.33;100.00
7660;BME280;3872;47.902;8.162;2023-01-10T12:20:20;92408.69;;;3.31;100.00
7660;BME280;3872;47.902;8.162;2023-01-10T12:22:51;92409.63;;;3.08;100.00
7660;BME280;3872;47.902;8.162;2023-01-10T12:25:29;92401.06;;;2.79;100.00
7660;BME280;3872;47.902;8.162;2023-01-10T12:27:59;92399.91;;;3.20;100.00
7660;BME280;3872;47.902;8.162;2023-01-10T12:30:30;92401.19;;;3.18;100.00
7660;BME280;3872;47.902;8.162;2023-01-10T12:33:00;92393.56;;;4.21;100.00
7660;BME280;3872;47.902;8.162;2023-01-10T12:35:37;92394.63;;;3.48;100.00
7660;BME280;3872;47.902;8.162;2023-01-10T12:38:09;92389.38;;;3.43;100.00
7660;BME280;3872;47.902;8.162;2023-01-10T12:40:46;92381.22;;;3.73;100.00
7660;BME280;3872;47.902;8.162;2023-01-10T12:43:18;92383.63;;;4.40;100.00
7660;BME280;3872;47.902;8.162;2023-01-10T12:46:08;92388.75;;;4.13;100.00
7660;BME280;3872;47.902;8.162;2023-01-10T12:48:42;92383.63;;;4.40;100.00
7660;BME280;3872;47.902;8.162;2023-01-10T12:51:15;92385.03;;;3.49;100.00
7660;BME280;3872;47.902;8.162;2023-01-10T12:53:48;92377.25;;;3.71;100.00
7660;BME280;3872;47.902;8.162;2023-01-10T12:56:19;92381.88;;;3.13;100.00
7660;BME280;3872;47.902;8.162;2023-01-10T12:58:48;92374.50;;;3.77;100.00
7660;BME280;3872;47.902;8.162;2023-01-10T13:01:17;92381.97;;;3.52;100.00
7660;BME280;3872;47.902;8.162;2023-01-10T13:03:49;92377.66;;;4.93;100.00
7660;BME280;3872;47.902;8.162;2023-01-10T13:06:23;92379.63;;;4.54;100.00
7660;BME280;3872;47.902;8.162;2023-01-10T13:08:51;92379.72;;;4.91;100.00
7660;BME280;3872;47.902;8.162;2023-01-10T13:11:21;92374.34;;;4.76;100.00
7660;BME280;3872;47.902;8.162;2023-01-10T13:13:54;92373.28;;;4.23;100.00
7660;BME280;3872;47.902;8.162;2023-01-10T13:16:28;92372.91;;;4.37;100.00
7660;BME280;3872;47.902;8.162;2023-01-10T13:18:58;92364.06;;;4.91;100.00
7660;BME280;3872;47.902;8.162;2023-01-10T13:21:26;92354.22;;;5.25;100.00
7660;BME280;3872;47.902;8.162;2023-01-10T13:23:57;92355.78;;;4.67;100.00
7660;BME280;3872;47.902;8.162;2023-01-10T13:26:26;92357.31;;;4.20;100.00
7660;BME280;3872;47.902;8.162;2023-01-10T13:29:14;92353.06;;;4.84;100.00
7660;BME280;3872;47.902;8.162;2023-01-10T13:31:43;92349.69;;;4.35;100.00
7660;BME280;3872;47.902;8.162;2023-01-10T13:34:11;92350.50;;;3.53;100.00
7660;BME280;3872;47.902;8.162;2023-01-10T13:36:41;92354.47;;;3.39;100.00
7660;BME280;3872;47.902;8.162;2023-01-10T13:39:20;92348.63;;;4.31;100.00
7660;BME280;3872;47.902;8.162;2023-01-10T13:45:21;92354.09;;;4.83;100.00